Mega Smeralda — ICIU — position and weather

sailwx.info

Track history (hours):
 
Tides and Currents Weather Stations Pressure Air Temp Water Temp Dewpoint Dewpoint Depression Visibility Wind Speed Wind Dir Waves Ship Positions

Mega Smeralda

Last reported at 2016-Dec-06 11:30 UTC. Time now 2016-Dec-06 12:11 UTC.
Position N 43°07' E 005°56'.

Length 171 m; draft 6.5 m.

Type: Passenger vessel. MMSI: 247228600.

Date/timePositionNaut miles runAvg speedWind from/ knotsBaromVisibWave heightAir tempDewpointWater temp
2016-Dec-06 11:30N 43°07' E 005°56'0 0.0
2016-Dec-06 10:31N 43°07' E 005°56'0 0.0
2016-Dec-06 09:30N 43°07' E 005°56'0 0.0
2016-Dec-06 08:30N 43°07' E 005°56'0 0.0
2016-Dec-06 07:33N 43°07' E 005°56'0 0.0
2016-Dec-06 06:30N 43°07' E 005°56'2 0.1
2016-Dec-04 20:18N 43°05' E 005°57'2 3.1
2016-Dec-04 19:33N 43°07' E 005°56'0 0.0
2016-Dec-04 18:33N 43°07' E 005°56'0 0.0
2016-Dec-04 17:33N 43°07' E 005°56'0 0.0
2016-Dec-04 16:33N 43°07' E 005°56'0 0.0
2016-Dec-04 15:33N 43°07' E 005°56'0 0.0
2016-Dec-04 14:33N 43°07' E 005°56'0 0.0
2016-Dec-04 13:33N 43°07' E 005°56'0 0.0
2016-Dec-04 12:33N 43°07' E 005°56'0 0.0
2016-Dec-04 11:33N 43°07' E 005°56'0 0.0
2016-Dec-04 10:33N 43°07' E 005°56'0 0.0
2016-Dec-04 09:33N 43°07' E 005°56'0 0.0
2016-Dec-04 08:33N 43°07' E 005°56'0 0.0
2016-Dec-04 07:33N 43°07' E 005°56'6212.3
2016-Dec-04 02:32N 43°11' E 007°20'5216.4
2016-Dec-03 23:21N 43°19' E 008°31'1417.6
2016-Dec-03 22:33N 43°17' E 008°50'1817.8
2016-Dec-03 21:33N 43°11' E 009°13'1817.8
2016-Dec-03 20:33N 43°04' E 009°35'13 3.0
2016-Dec-03 16:10N 42°54' E 009°47'1117.8
2016-Dec-03 15:33N 43°01' E 009°58'1817.9
2016-Dec-03 14:34N 43°18' E 010°06'1616.1
2016-Dec-03 13:33N 43°32' E 010°16'2 1.6
2016-Dec-03 12:32N 43°33' E 010°18'0 0.0
2016-Dec-03 11:32N 43°33' E 010°18'7 7.7
2016-Dec-03 10:33N 43°27' E 010°12'2019.6
2016-Dec-03 09:33N 43°09' E 010°02'1716.4
2016-Dec-03 08:32N 42°55' E 009°50'13 3.3
2016-Dec-03 04:33N 43°02' E 009°34'15919.1
2016-Dec-02 20:16N 43°05' E 005°57'2 2.0
2016-Dec-02 19:05N 43°07' E 005°56'0 0.0
2016-Dec-02 18:29N 43°07' E 005°56'0 0.0
2016-Dec-02 17:29N 43°07' E 005°56'0 0.0
2016-Dec-02 16:29N 43°07' E 005°56'0 0.0
2016-Dec-02 15:29N 43°07' E 005°56'0 0.0
2016-Dec-02 14:23N 43°07' E 005°56'0 0.0
2016-Dec-02 13:29N 43°07' E 005°56'0 0.0
2016-Dec-02 12:17N 43°07' E 005°56'0 0.0
2016-Dec-02 11:32N 43°07' E 005°56'0 0.0
2016-Dec-02 10:29N 43°07' E 005°56'0 0.0
2016-Dec-02 09:29N 43°07' E 005°56'0 0.0
2016-Dec-02 08:26N 43°07' E 005°56'0 0.0
2016-Dec-02 07:32N 43°07' E 005°56'0 0.0
2016-Dec-02 06:32N 43°07' E 005°56'4 0.1
2016-Nov-30 20:26N 43°03' E 005°59'4 4.2
2016-Nov-30 19:29N 43°07' E 005°56'0 0.0
2016-Nov-30 18:29N 43°07' E 005°56'0 0.0
2016-Nov-30 17:31N 43°07' E 005°56'0 0.0
2016-Nov-30 16:31N 43°07' E 005°56'0 0.0
2016-Nov-30 15:32N 43°07' E 005°56'0 0.0
2016-Nov-30 14:32N 43°07' E 005°56'0 0.0
2016-Nov-30 13:31N 43°07' E 005°56'0 0.0
2016-Nov-30 12:31N 43°07' E 005°56'0 0.0
2016-Nov-30 11:31N 43°07' E 005°56'0 0.0
2016-Nov-30 10:32N 43°07' E 005°56'0 0.0
2016-Nov-30 09:29N 43°07' E 005°56'0 0.0
2016-Nov-30 08:31N 43°07' E 005°56'0 0.0
2016-Nov-30 07:31N 43°07' E 005°56'0 0.0
2016-Nov-30 06:31N 43°07' E 005°56'2 1.9
2016-Nov-30 05:33N 43°05' E 005°57'2 0.0
2016-Nov-28 20:22N 43°04' E 005°58'3 4.0
2016-Nov-28 19:30N 43°07' E 005°56'0 0.0
2016-Nov-28 18:33N 43°07' E 005°56'0 0.0
2016-Nov-28 17:24N 43°07' E 005°56'0 0.0
2016-Nov-28 16:30N 43°07' E 005°56'0 0.0
2016-Nov-28 15:30N 43°07' E 005°56'0 0.0
2016-Nov-28 14:30N 43°07' E 005°56'0 0.0
2016-Nov-28 11:18N 43°07' E 005°56'0 0.0
2016-Nov-28 10:33N 43°07' E 005°56'0 0.0
2016-Nov-28 08:30N 43°07' E 005°56'0 0.0
2016-Nov-28 07:30N 43°07' E 005°56'0 0.0
2016-Nov-28 06:30N 43°07' E 005°56'2 0.1
2016-Nov-26 20:20N 43°05' E 005°57'2 3.0
2016-Nov-26 19:34N 43°07' E 005°56'0 0.0
2016-Nov-26 18:31N 43°07' E 005°56'0 0.0
2016-Nov-26 17:33N 43°07' E 005°56'0 0.0
2016-Nov-26 16:31N 43°07' E 005°56'0 0.0
2016-Nov-26 15:34N 43°07' E 005°56'0 0.0
2016-Nov-26 14:19N 43°07' E 005°56'0 0.0
2016-Nov-26 13:30N 43°07' E 005°56'0 0.0
2016-Nov-26 12:31N 43°07' E 005°56'0 0.0
2016-Nov-26 11:31N 43°07' E 005°56'  
Track history (hours):
 
Tides and Currents Weather Stations Pressure Air Temp Water Temp Dewpoint Dewpoint Depression Visibility Wind Speed Wind Dir Waves Ship Positions

Mega Smeralda

Last reported at 2016-Dec-06 11:30 UTC. Time now 2016-Dec-06 12:11 UTC.
Position N 43°07' E 005°56'.

Length 171 m; draft 6.5 m.

Type: Passenger vessel. MMSI: 247228600.

Date/timePositionNaut miles runAvg speedWind from/ knotsBaromVisibWave heightAir tempDewpointWater temp
2016-Dec-06 11:30N 43°07' E 005°56'0 0.0
2016-Dec-06 10:31N 43°07' E 005°56'0 0.0
2016-Dec-06 09:30N 43°07' E 005°56'0 0.0
2016-Dec-06 08:30N 43°07' E 005°56'0 0.0
2016-Dec-06 07:33N 43°07' E 005°56'0 0.0
2016-Dec-06 06:30N 43°07' E 005°56'2 0.1
2016-Dec-04 20:18N 43°05' E 005°57'2 3.1
2016-Dec-04 19:33N 43°07' E 005°56'0 0.0
2016-Dec-04 18:33N 43°07' E 005°56'0 0.0
2016-Dec-04 17:33N 43°07' E 005°56'0 0.0
2016-Dec-04 16:33N 43°07' E 005°56'0 0.0
2016-Dec-04 15:33N 43°07' E 005°56'0 0.0
2016-Dec-04 14:33N 43°07' E 005°56'0 0.0
2016-Dec-04 13:33N 43°07' E 005°56'0 0.0
2016-Dec-04 12:33N 43°07' E 005°56'0 0.0
2016-Dec-04 11:33N 43°07' E 005°56'0 0.0
2016-Dec-04 10:33N 43°07' E 005°56'0 0.0
2016-Dec-04 09:33N 43°07' E 005°56'0 0.0
2016-Dec-04 08:33N 43°07' E 005°56'0 0.0
2016-Dec-04 07:33N 43°07' E 005°56'6212.3
2016-Dec-04 02:32N 43°11' E 007°20'5216.4
2016-Dec-03 23:21N 43°19' E 008°31'1417.6
2016-Dec-03 22:33N 43°17' E 008°50'1817.8
2016-Dec-03 21:33N 43°11' E 009°13'1817.8
2016-Dec-03 20:33N 43°04' E 009°35'13 3.0
2016-Dec-03 16:10N 42°54' E 009°47'1117.8
2016-Dec-03 15:33N 43°01' E 009°58'1817.9
2016-Dec-03 14:34N 43°18' E 010°06'1616.1
2016-Dec-03 13:33N 43°32' E 010°16'2 1.6
2016-Dec-03 12:32N 43°33' E 010°18'0 0.0
2016-Dec-03 11:32N 43°33' E 010°18'7 7.7
2016-Dec-03 10:33N 43°27' E 010°12'2019.6
2016-Dec-03 09:33N 43°09' E 010°02'1716.4
2016-Dec-03 08:32N 42°55' E 009°50'13 3.3
2016-Dec-03 04:33N 43°02' E 009°34'15919.1
2016-Dec-02 20:16N 43°05' E 005°57'2 2.0
2016-Dec-02 19:05N 43°07' E 005°56'0 0.0
2016-Dec-02 18:29N 43°07' E 005°56'0 0.0
2016-Dec-02 17:29N 43°07' E 005°56'0 0.0
2016-Dec-02 16:29N 43°07' E 005°56'0 0.0
2016-Dec-02 15:29N 43°07' E 005°56'0 0.0
2016-Dec-02 14:23N 43°07' E 005°56'0 0.0
2016-Dec-02 13:29N 43°07' E 005°56'0 0.0
2016-Dec-02 12:17N 43°07' E 005°56'0 0.0
2016-Dec-02 11:32N 43°07' E 005°56'0 0.0
2016-Dec-02 10:29N 43°07' E 005°56'0 0.0
2016-Dec-02 09:29N 43°07' E 005°56'0 0.0
2016-Dec-02 08:26N 43°07' E 005°56'0 0.0
2016-Dec-02 07:32N 43°07' E 005°56'0 0.0
2016-Dec-02 06:32N 43°07' E 005°56'4 0.1
2016-Nov-30 20:26N 43°03' E 005°59'4 4.2
2016-Nov-30 19:29N 43°07' E 005°56'0 0.0
2016-Nov-30 18:29N 43°07' E 005°56'0 0.0
2016-Nov-30 17:31N 43°07' E 005°56'0 0.0
2016-Nov-30 16:31N 43°07' E 005°56'0 0.0
2016-Nov-30 15:32N 43°07' E 005°56'0 0.0
2016-Nov-30 14:32N 43°07' E 005°56'0 0.0
2016-Nov-30 13:31N 43°07' E 005°56'0 0.0
2016-Nov-30 12:31N 43°07' E 005°56'0 0.0
2016-Nov-30 11:31N 43°07' E 005°56'0 0.0
2016-Nov-30 10:32N 43°07' E 005°56'0 0.0
2016-Nov-30 09:29N 43°07' E 005°56'0 0.0
2016-Nov-30 08:31N 43°07' E 005°56'0 0.0
2016-Nov-30 07:31N 43°07' E 005°56'0 0.0
2016-Nov-30 06:31N 43°07' E 005°56'2 1.9
2016-Nov-30 05:33N 43°05' E 005°57'2 0.0
2016-Nov-28 20:22N 43°04' E 005°58'3 4.0
2016-Nov-28 19:30N 43°07' E 005°56'0 0.0
2016-Nov-28 18:33N 43°07' E 005°56'0 0.0
2016-Nov-28 17:24N 43°07' E 005°56'0 0.0
2016-Nov-28 16:30N 43°07' E 005°56'0 0.0
2016-Nov-28 15:30N 43°07' E 005°56'0 0.0
2016-Nov-28 14:30N 43°07' E 005°56'0 0.0
2016-Nov-28 11:18N 43°07' E 005°56'0 0.0
2016-Nov-28 10:33N 43°07' E 005°56'0 0.0
2016-Nov-28 08:30N 43°07' E 005°56'0 0.0
2016-Nov-28 07:30N 43°07' E 005°56'0 0.0
2016-Nov-28 06:30N 43°07' E 005°56'2 0.1
2016-Nov-26 20:20N 43°05' E 005°57'2 3.0
2016-Nov-26 19:34N 43°07' E 005°56'0 0.0
2016-Nov-26 18:31N 43°07' E 005°56'0 0.0
2016-Nov-26 17:33N 43°07' E 005°56'0 0.0
2016-Nov-26 16:31N 43°07' E 005°56'0 0.0
2016-Nov-26 15:34N 43°07' E 005°56'0 0.0
2016-Nov-26 14:19N 43°07' E 005°56'0 0.0
2016-Nov-26 13:30N 43°07' E 005°56'0 0.0
2016-Nov-26 12:31N 43°07' E 005°56'0 0.0
2016-Nov-26 11:31N 43°07' E 005°56'  

Dump ship's entire track history